Time;durP1;ratioP1;P1;durP2;ratioP2;P2;SDS_P1;SDS_P2;PMS_P1;PMS_P2;Temp;Humidity;BMP_temperature;BMP_pressure;BME280_temperature;BME280_humidity;BME280_pressure;Samples;Min_cycle;Max_cycle;Signal;HPM_P1;HPM_P2
2024/02/12 00:00:45;;;;;;;15.93;7.38;;;;;;;4.49;100.00;99470.72;4916830;29;20046;-74
2024/02/12 00:03:19;;;;;;;15.73;7.97;;;;;;;4.49;100.00;99475.22;4918778;29;20047;-71
2024/02/12 00:05:46;;;;;;;15.05;7.88;;;;;;;4.46;100.00;99476.53;4917088;29;20036;-72
2024/02/12 00:08:15;;;;;;;15.93;8.63;;;;;;;4.46;100.00;99470.44;4905600;29;20101;-71
2024/02/12 00:10:45;;;;;;;15.63;8.40;;;;;;;4.45;100.00;99474.16;4917072;29;20043;-73
2024/02/12 00:13:11;;;;;;;15.63;7.65;;;;;;;4.46;100.00;99475.72;4903248;29;20088;-73
2024/02/12 00:15:39;;;;;;;13.73;7.82;;;;;;;4.45;100.00;99467.00;4910827;29;20091;-73
2024/02/12 00:18:06;;;;;;;16.25;9.27;;;;;;;4.44;100.00;99485.81;4914141;29;20055;-71
2024/02/12 00:20:32;;;;;;;13.90;7.97;;;;;;;4.45;100.00;99490.06;4915284;29;20043;-73
2024/02/12 00:22:58;;;;;;;13.60;6.75;;;;;;;4.46;100.00;99483.69;4913088;29;20497;-73
2024/02/12 00:25:24;;;;;;;15.63;7.20;;;;;;;4.46;100.00;99491.63;4922315;29;20075;-73
2024/02/12 00:27:50;;;;;;;13.27;7.38;;;;;;;4.46;100.00;99486.34;4925554;29;20050;-73
2024/02/12 00:30:18;;;;;;;15.88;7.75;;;;;;;4.45;100.00;99490.06;4902161;29;20055;-72
2024/02/12 00:32:44;;;;;;;13.95;7.85;;;;;;;4.44;100.00;99483.94;4916203;29;20050;-73
2024/02/12 00:35:10;;;;;;;18.17;9.90;;;;;;;4.44;100.00;99494.56;4915429;29;20044;-73
2024/02/12 00:37:40;;;;;;;17.50;9.13;;;;;;;4.43;100.00;99492.97;4912900;29;20048;-73
2024/02/12 00:40:11;;;;;;;15.48;8.48;;;;;;;4.42;100.00;99486.06;4905833;29;20139;-72
2024/02/12 00:42:38;;;;;;;17.92;8.85;;;;;;;4.42;100.00;99486.06;4923227;29;20035;-74
2024/02/12 00:45:12;;;;;;;18.63;8.82;;;;;;;4.43;100.00;99486.88;4914700;29;20028;-75
2024/02/12 00:47:40;;;;;;;17.40;8.70;;;;;;;4.42;100.00;99488.72;4911802;29;20048;-74
2024/02/12 00:50:07;;;;;;;19.55;9.65;;;;;;;4.40;100.00;99490.81;4914294;29;20036;-72
2024/02/12 00:52:37;;;;;;;17.98;9.43;;;;;;;4.39;100.00;99489.22;4912568;29;20091;-73
2024/02/12 00:55:07;;;;;;;17.95;10.07;;;;;;;4.38;100.00;99490.28;4913136;29;20036;-72
2024/02/12 00:57:45;;;;;;;17.45;8.73;;;;;;;4.36;100.00;99484.47;4908393;29;20147;-73
2024/02/12 01:00:15;;;;;;;20.23;9.77;;;;;;;4.35;100.00;99493.47;4908914;29;20560;-73
2024/02/12 01:02:54;;;;;;;18.75;9.57;;;;;;;4.35;100.00;99485.53;4909929;29;20048;-74
2024/02/12 01:05:20;;;;;;;21.23;9.43;;;;;;;4.33;100.00;99504.31;4916466;29;20186;-75
2024/02/12 01:07:46;;;;;;;22.15;9.30;;;;;;;4.33;100.00;99503.50;4919232;29;20050;-75
2024/02/12 01:10:15;;;;;;;17.33;9.77;;;;;;;4.34;100.00;99505.13;4895905;29;20031;-72
2024/02/12 01:12:42;;;;;;;17.98;8.85;;;;;;;4.32;100.00;99502.72;4916165;29;20640;-73
2024/02/12 01:15:09;;;;;;;21.33;9.38;;;;;;;4.32;100.00;99502.72;4922617;29;20062;-72
2024/02/12 01:17:47;;;;;;;17.60;8.82;;;;;;;4.32;100.00;99502.72;4928657;28;20035;-73
2024/02/12 01:20:14;;;;;;;16.35;8.60;;;;;;;4.32;100.00;99502.72;4900182;29;20055;-73
2024/02/12 01:22:40;;;;;;;21.15;8.38;;;;;;;4.32;100.00;99513.31;4907137;29;20591;-73
2024/02/12 01:25:06;;;;;;;18.77;9.10;;;;;;;4.33;100.00;99511.47;4900836;29;20106;-72
2024/02/12 01:27:32;;;;;;;22.60;9.10;;;;;;;4.34;100.00;99515.75;4932012;28;20386;-72
2024/02/12 01:29:57;;;;;;;21.48;9.80;;;;;;;4.32;100.00;99508.03;4900372;29;20146;-73
2024/02/12 01:32:23;;;;;;;21.50;9.07;;;;;;;4.34;100.00;99510.44;4900933;29;20442;-73
2024/02/12 01:34:49;;;;;;;;;;;;;;;4.33;100.00;99516.75;4918738;29;20044;-74
2024/02/12 01:37:16;;;;;;;20.60;9.05;;;;;;;4.32;100.00;99517.81;4916554;29;19989;-74
2024/02/12 01:39:41;;;;;;;21.15;9.23;;;;;;;4.32;100.00;99508.03;4915190;29;20043;-72
2024/02/12 01:42:13;;;;;;;20.08;9.85;;;;;;;4.33;100.00;99514.13;4919474;29;20488;-73
2024/02/12 01:45:03;;;;;;;18.60;8.85;;;;;;;4.35;100.00;99512.81;4916157;29;20046;-72
2024/02/12 01:47:33;;;;;;;20.08;8.82;;;;;;;4.36;100.00;99518.91;4901040;29;20043;-75
2024/02/12 01:50:00;;;;;;;19.63;8.13;;;;;;;4.35;100.00;99518.13;4897337;29;20130;-73
2024/02/12 01:52:28;;;;;;;18.60;9.00;;;;;;;4.35;100.00;99522.63;4901896;29;20040;-72
2024/02/12 01:54:55;;;;;;;19.08;8.75;;;;;;;4.35;100.00;99523.41;4887558;29;20044;-73
2024/02/12 01:57:22;;;;;;;19.60;9.52;;;;;;;4.37;100.00;99525.81;4921427;29;20036;-72
2024/02/12 01:59:48;;;;;;;23.42;9.65;;;;;;;4.36;100.00;99526.88;4906175;29;20035;-73
2024/02/12 02:02:14;;;;;;;21.75;9.88;;;;;;;4.36;100.00;99534.81;4922247;29;20067;-72
2024/02/12 02:04:43;;;;;;;20.75;9.50;;;;;;;4.37;100.00;99531.91;4893769;29;20048;-75
2024/02/12 02:07:21;;;;;;;19.88;9.90;;;;;;;4.37;100.00;99525.81;4909994;29;20054;-73
2024/02/12 02:09:49;;;;;;;21.27;8.80;;;;;;;4.39;100.00;99534.28;4897019;29;20060;-73
2024/02/12 02:12:15;;;;;;;21.23;10.07;;;;;;;4.39;100.00;99529.78;4909396;29;20567;-73
2024/02/12 02:14:45;;;;;;;20.15;9.38;;;;;;;4.40;100.00;99533.22;4916095;29;20043;-74
2024/02/12 02:17:13;;;;;;;17.73;9.05;;;;;;;4.43;100.00;99537.25;4915443;29;20405;-72
2024/02/12 02:19:39;;;;;;;17.77;9.05;;;;;;;4.43;100.00;99535.38;4923670;29;20080;-72
2024/02/12 02:22:06;;;;;;;19.23;9.20;;;;;;;4.43;100.00;99538.03;4917387;29;20034;-71
2024/02/12 02:24:34;;;;;;;17.25;8.48;;;;;;;4.45;100.00;99537.78;4905798;29;20642;-73
2024/02/12 02:26:59;;;;;;;18.67;8.80;;;;;;;4.44;100.00;99531.66;4913132;29;20042;-73
2024/02/12 02:29:25;;;;;;;22.42;9.35;;;;;;;4.47;100.00;99539.13;4922884;29;20509;-73
2024/02/12 02:31:51;;;;;;;19.55;8.82;;;;;;;4.49;100.00;99537.00;4913866;29;20048;-74
2024/02/12 02:34:17;;;;;;;25.70;10.40;;;;;;;4.50;100.00;99535.94;4916087;29;20383;-73
2024/02/12 02:36:46;;;;;;;;;;;;;;;4.51;100.00;99542.03;4919416;29;20051;-72
2024/02/12 02:39:13;;;;;;;27.05;10.43;;;;;;;4.52;100.00;99546.28;4910227;29;19969;-73
2024/02/12 02:41:42;;;;;;;20.85;9.40;;;;;;;4.53;100.00;99540.72;4912452;29;20135;-73
2024/02/12 02:44:08;;;;;;;28.00;10.98;;;;;;;4.54;100.00;99542.34;4913433;29;20032;-72
2024/02/12 02:46:36;;;;;;;27.45;11.40;;;;;;;4.57;100.00;99546.31;4874810;29;20519;-72
2024/02/12 02:49:03;;;;;;;27.17;11.30;;;;;;;4.61;100.00;99553.50;4916076;29;20039;-74
2024/02/12 02:51:29;;;;;;;29.60;12.68;;;;;;;4.62;100.00;99547.13;4910521;29;20116;-73
2024/02/12 02:53:56;;;;;;;32.15;11.30;;;;;;;4.66;100.00;99550.84;4930755;28;20047;-72
2024/02/12 02:56:22;;;;;;;30.67;12.98;;;;;;;4.70;100.00;99545.03;4915114;29;20045;-73
2024/02/12 02:58:50;;;;;;;34.20;11.93;;;;;;;4.73;100.00;99558.56;4910574;29;20063;-74
2024/02/12 03:01:22;;;;;;;31.13;11.80;;;;;;;4.75;100.00;99545.88;4920048;29;20107;-74
2024/02/12 03:03:50;;;;;;;32.08;12.20;;;;;;;4.78;100.00;99555.94;4932707;23;20203;-75
2024/02/12 03:06:17;;;;;;;28.48;11.80;;;;;;;4.78;100.00;99558.59;4900679;29;20035;-77
2024/02/12 03:08:42;;;;;;;26.35;11.15;;;;;;;4.80;100.00;99553.81;4909875;29;20176;-75
2024/02/12 03:11:08;;;;;;;29.60;12.23;;;;;;;4.82;100.00;99550.94;4924334;29;20149;-76
2024/02/12 03:13:36;;;;;;;29.33;12.15;;;;;;;4.83;100.00;99552.50;4914408;29;20131;-77
2024/02/12 03:16:02;;;;;;;33.65;11.50;;;;;;;4.86;100.00;99560.72;4935392;28;20501;-78
2024/02/12 03:18:28;;;;;;;37.35;12.85;;;;;;;4.88;100.00;99557.84;4914050;29;20075;-77
2024/02/12 03:20:55;;;;;;;32.25;12.18;;;;;;;4.89;100.00;99564.75;4934064;28;20122;-78
2024/02/12 03:23:21;;;;;;;28.40;11.77;;;;;;;4.89;100.00;99564.75;4928317;28;20085;-78
2024/02/12 03:25:47;;;;;;;28.60;11.23;;;;;;;4.90;100.00;99561.81;4938219;28;20438;-79
2024/02/12 03:28:12;;;;;;;27.85;11.52;;;;;;;4.92;100.00;99559.69;4929900;29;20489;-79
2024/02/12 03:30:39;;;;;;;32.85;12.52;;;;;;;4.94;100.00;99572.69;4919623;29;20588;-77
2024/02/12 03:33:04;;;;;;;;;;;;;;;4.96;100.00;99569.81;4904663;29;20042;-77
2024/02/12 03:35:29;;;;;;;30.88;11.10;;;;;;;4.96;100.00;99565.28;4923890;29;19922;-75
2024/02/12 03:37:57;;;;;;;26.90;10.80;;;;;;;4.97;100.00;99561.56;4915427;29;20100;-78
2024/02/12 03:40:27;;;;;;;30.27;10.75;;;;;;;4.94;100.00;99567.38;4916048;29;20048;-77
2024/02/12 03:42:54;;;;;;;30.40;10.57;;;;;;;4.96;100.00;99569.81;4921069;29;20087;-77
2024/02/12 03:45:20;;;;;;;27.38;10.77;;;;;;;4.96;100.00;99570.59;4938174;28;20042;-77
2024/02/12 03:47:47;;;;;;;28.30;11.30;;;;;;;4.96;100.00;99570.59;4918852;29;20036;-77
2024/02/12 04:01:17;;;;;;;25.95;9.68;;;;;;;4.99;100.00;99579.88;4939872;28;19915;-77
2024/02/12 04:03:43;;;;;;;26.65;9.57;;;;;;;4.99;100.00;99583.31;4924847;29;20035;-77
2024/02/12 04:06:12;;;;;;;24.67;10.07;;;;;;;4.99;100.00;99596.59;4920385;29;20114;-77
2024/02/12 04:08:42;;;;;;;28.58;10.05;;;;;;;4.99;100.00;99591.28;4902023;29;20031;-78
2024/02/12 04:11:09;;;;;;;34.22;12.05;;;;;;;5.00;100.00;99597.38;4934988;28;20129;-78
2024/02/12 04:13:36;;;;;;;28.00;11.55;;;;;;;5.00;100.00;99592.88;4917394;29;20067;-77
2024/02/12 04:16:04;;;;;;;32.30;11.48;;;;;;;5.02;100.00;99601.41;4918583;29;20036;-77
2024/02/12 04:18:30;;;;;;;32.72;11.60;;;;;;;5.03;100.00;99608.28;4919250;29;20179;-77
2024/02/12 04:20:57;;;;;;;33.17;11.93;;;;;;;5.07;100.00;99605.91;4930199;29;20128;-75
2024/02/12 04:23:23;;;;;;;34.15;12.00;;;;;;;5.08;100.00;99605.66;4916061;29;20106;-77
2024/02/12 04:25:50;;;;;;;37.38;12.15;;;;;;;5.09;100.00;99611.78;4901420;29;20494;-77
2024/02/12 04:28:18;;;;;;;34.08;11.23;;;;;;;5.08;100.00;99610.97;4916827;29;20036;-76
2024/02/12 04:30:44;;;;;;;34.13;11.88;;;;;;;5.07;100.00;99609.34;4903891;29;20163;-76
2024/02/12 04:33:11;;;;;;;35.13;12.68;;;;;;;5.09;100.00;99617.88;4935880;28;20032;-77
2024/02/12 04:35:36;;;;;;;37.70;12.77;;;;;;;5.14;100.00;99623.19;4914379;29;20087;-78
2024/02/12 04:38:03;;;;;;;39.15;12.85;;;;;;;5.16;100.00;99621.09;4916621;29;20051;-76
2024/02/12 04:40:30;;;;;;;40.63;13.30;;;;;;;5.20;100.00;99624.78;4920860;29;20040;-76
2024/02/12 04:42:57;;;;;;;;;;;;;;;5.23;100.00;99620.84;4909420;29;20036;-75
2024/02/12 04:45:24;;;;;;;33.95;12.20;;;;;;;5.25;100.00;99626.66;4928271;28;20581;-76
2024/02/12 04:47:50;;;;;;;35.88;11.45;;;;;;;5.25;100.00;99625.88;4917788;29;20118;-77
2024/02/12 04:50:17;;;;;;;38.95;13.00;;;;;;;5.26;100.00;99627.47;4916211;29;20046;-77
2024/02/12 04:52:42;;;;;;;43.95;12.90;;;;;;;5.28;100.00;99634.09;4923283;29;20044;-76
2024/02/12 04:55:11;;;;;;;42.47;12.95;;;;;;;5.30;100.00;99631.22;4896346;29;20581;-77
2024/02/12 04:57:38;;;;;;;46.15;13.13;;;;;;;5.33;100.00;99634.13;4912121;29;20039;-78
2024/02/12 05:00:04;;;;;;;37.80;12.68;;;;;;;5.35;100.00;99637.34;4917472;29;20046;-78
2024/02/12 05:02:32;;;;;;;43.15;14.40;;;;;;;5.38;100.00;99639.44;4906145;29;20212;-78
2024/02/12 05:04:58;;;;;;;45.78;13.27;;;;;;;5.40;100.00;99650.59;4921736;29;20393;-76
2024/02/12 05:07:27;;;;;;;39.97;14.43;;;;;;;5.42;100.00;99648.50;4891154;29;20047;-76
2024/02/12 05:09:53;;;;;;;38.95;12.63;;;;;;;5.46;100.00;99659.38;4920785;29;20043;-77
2024/02/12 05:12:19;;;;;;;45.28;14.60;;;;;;;5.48;100.00;99659.91;4917070;29;20039;-78
2024/02/12 05:14:46;;;;;;;41.03;13.63;;;;;;;5.51;100.00;99666.56;4916179;29;20036;-77
2024/02/12 05:17:12;;;;;;;42.05;12.40;;;;;;;5.48;100.00;99660.69;4910237;29;20063;-75
2024/02/12 05:22:35;;;;;;;38.88;12.48;;;;;;;5.48;100.00;99659.91;4923939;29;20038;-76
2024/02/12 05:25:04;;;;;;;49.67;13.63;;;;;;;5.49;100.00;99658.88;4889164;29;20039;-76
2024/02/12 05:27:31;;;;;;;41.63;13.75;;;;;;;5.49;100.00;99664.19;4916792;29;20036;-76
2024/02/12 05:29:57;;;;;;;47.20;13.82;;;;;;;5.50;100.00;99663.13;4918310;29;20031;-75
2024/02/12 05:32:23;;;;;;;44.20;13.93;;;;;;;5.50;100.00;99657.81;4921365;29;20046;-76
2024/02/12 05:34:49;;;;;;;40.35;13.50;;;;;;;5.49;100.00;99658.88;4933892;28;20126;-76
2024/02/12 05:37:18;;;;;;;40.25;12.93;;;;;;;5.49;100.00;99650.91;4917445;29;20548;-76
2024/02/12 05:39:44;;;;;;;40.58;12.85;;;;;;;5.48;100.00;99662.56;4916823;29;20409;-76
2024/02/12 05:42:10;;;;;;;37.60;13.10;;;;;;;5.44;100.00;99650.88;4918186;29;20043;-76
2024/02/12 05:44:35;;;;;;;40.53;12.60;;;;;;;5.41;100.00;99667.31;4909102;29;22451;-78
2024/02/12 05:47:08;;;;;;;42.58;13.40;;;;;;;5.41;100.00;99662.00;4925216;28;20042;-76
2024/02/12 05:49:34;;;;;;;49.72;14.88;;;;;;;5.41;100.00;99659.34;4935967;28;20032;-76
2024/02/12 05:52:03;;;;;;;47.92;15.02;;;;;;;5.41;100.00;99669.97;4886871;29;20032;-78
2024/02/12 05:54:29;;;;;;;39.83;13.77;;;;;;;5.41;100.00;99677.94;4921008;29;20074;-76
2024/02/12 05:56:55;;;;;;;51.10;15.35;;;;;;;5.40;100.00;99673.69;4906824;29;20071;-79
2024/02/12 05:59:20;;;;;;;45.47;13.93;;;;;;;5.41;100.00;99678.75;4922729;29;20035;-78
2024/02/12 06:01:46;;;;;;;48.30;14.80;;;;;;;5.41;100.00;99688.56;4911641;29;20517;-78
2024/02/12 06:04:13;;;;;;;52.92;14.52;;;;;;;5.40;100.00;99689.63;4917606;29;20036;-78
2024/02/12 06:06:39;;;;;;;44.85;13.80;;;;;;;5.39;100.00;99693.34;4921788;29;20055;-77
2024/02/12 06:09:06;;;;;;;;;;;;;;;5.38;100.00;99689.09;4919404;29;20039;-78
2024/02/12 06:11:32;;;;;;;45.85;14.50;;;;;;;5.35;100.00;99695.75;4921900;29;19919;-78
2024/02/12 06:13:57;;;;;;;46.10;13.77;;;;;;;5.35;100.00;99693.09;4923055;29;20515;-77
2024/02/12 06:16:23;;;;;;;47.03;15.30;;;;;;;5.32;100.00;99703.41;4916383;29;20031;-79
2024/02/12 06:18:51;;;;;;;53.00;14.43;;;;;;;5.31;100.00;99715.09;4917070;29;20042;-77
2024/02/12 06:21:17;;;;;;;46.38;14.35;;;;;;;5.28;100.00;99704.97;4918533;29;20027;-78
2024/02/12 06:23:43;;;;;;;54.08;14.32;;;;;;;5.29;100.00;99710.06;4922753;29;20066;-77
2024/02/12 06:26:10;;;;;;;54.90;15.15;;;;;;;5.28;100.00;99710.28;4927986;29;20111;-77
2024/02/12 06:28:36;;;;;;;57.83;15.50;;;;;;;5.30;100.00;99713.50;4922880;29;20031;-77
2024/02/12 06:31:02;;;;;;;53.78;16.25;;;;;;;5.29;100.00;99711.91;4912462;29;20042;-77
2024/02/12 06:33:28;;;;;;;58.65;17.23;;;;;;;5.31;100.00;99715.09;4917691;29;20032;-77
2024/02/12 06:35:56;;;;;;;50.78;16.90;;;;;;;5.32;100.00;99722.78;4915148;29;20043;-78
2024/02/12 06:38:22;;;;;;;51.35;14.98;;;;;;;5.33;100.00;99724.38;4923696;29;20044;-76
2024/02/12 06:40:48;;;;;;;53.55;16.95;;;;;;;5.37;100.00;99735.31;4900563;29;20087;-78
2024/02/12 06:43:14;;;;;;;49.00;15.07;;;;;;;5.40;100.00;99730.25;4919332;29;20035;-79
2024/02/12 06:45:40;;;;;;;52.95;16.55;;;;;;;5.43;100.00;99740.38;4902809;29;21714;-78
2024/02/12 06:48:06;;;;;;;52.25;16.77;;;;;;;5.47;100.00;99743.28;4898154;29;20036;-76
2024/02/12 06:50:32;;;;;;;59.30;17.55;;;;;;;5.50;100.00;99749.97;4919533;29;20036;-75
2024/02/12 06:53:17;;;;;;;55.22;17.30;;;;;;;5.53;100.00;99750.22;4894537;29;20067;-76
2024/02/12 06:55:43;;;;;;;68.80;17.25;;;;;;;5.55;100.00;99753.41;4917969;29;20064;-77
2024/02/12 06:58:09;;;;;;;59.60;18.30;;;;;;;5.58;100.00;99763.53;4934066;28;20644;-77
2024/02/12 07:00:35;;;;;;;54.50;17.02;;;;;;;5.61;100.00;99759.53;4924339;29;20082;-78
2024/02/12 07:03:02;;;;;;;59.75;17.00;;;;;;;5.61;100.00;99765.66;4928249;29;20050;-76
2024/02/12 07:05:28;;;;;;;52.67;17.35;;;;;;;5.64;100.00;99769.66;4925355;29;20398;-77
2024/02/12 07:07:55;;;;;;;59.83;16.88;;;;;;;5.64;100.00;99778.44;4928323;29;20046;-77
2024/02/12 07:10:23;;;;;;;49.80;17.17;;;;;;;5.65;100.00;99774.72;4926563;29;20043;-76
2024/02/12 07:12:49;;;;;;;46.72;15.77;;;;;;;5.67;100.00;99777.09;4916050;29;20798;-75
2024/02/12 07:15:15;;;;;;;49.97;15.88;;;;;;;5.67;100.00;99779.75;4919882;29;20164;-76
2024/02/12 07:17:41;;;;;;;58.00;17.80;;;;;;;5.69;100.00;99791.75;4926175;29;20172;-77
2024/02/12 07:20:08;;;;;;;53.70;16.40;;;;;;;5.68;100.00;99790.13;4916625;29;20098;-79
2024/02/12 07:22:35;;;;;;;56.85;17.23;;;;;;;5.69;100.00;99790.91;4927803;29;20039;-76
2024/02/12 07:25:01;;;;;;;56.20;17.25;;;;;;;5.71;100.00;99789.59;4926254;29;20034;-79
2024/02/12 07:27:28;;;;;;;53.42;16.38;;;;;;;5.70;100.00;99788.00;4927398;29;20040;-78
2024/02/12 07:29:55;;;;;;;48.67;15.77;;;;;;;5.69;100.00;99794.41;4933631;28;20040;-76
2024/02/12 07:32:21;;;;;;;41.45;14.55;;;;;;;5.71;100.00;99805.56;4919769;29;20334;-76
2024/02/12 07:34:50;;;;;;;45.25;14.57;;;;;;;5.71;100.00;99800.22;4919661;29;20490;-77
2024/02/12 07:37:18;;;;;;;49.13;14.02;;;;;;;5.71;100.00;99810.88;4908113;29;20039;-75
2024/02/12 07:39:48;;;;;;;40.35;13.40;;;;;;;5.72;100.00;99817.78;4922277;29;20039;-79
2024/02/12 07:42:14;;;;;;;44.45;13.00;;;;;;;5.70;100.00;99816.44;4930344;29;20090;-77
2024/02/12 07:44:41;;;;;;;40.90;12.25;;;;;;;5.70;100.00;99819.91;4927331;29;20430;-78
2024/02/12 07:47:06;;;;;;;41.30;14.13;;;;;;;5.71;100.00;99818.84;4922637;29;20043;-77
2024/02/12 07:49:32;;;;;;;50.30;13.63;;;;;;;5.73;100.00;99823.88;4919943;29;20095;-77
2024/02/12 07:51:59;;;;;;;39.05;13.25;;;;;;;5.77;100.00;99834.81;4921497;29;20048;-77
2024/02/12 07:54:28;;;;;;;39.50;13.65;;;;;;;5.80;100.00;99831.59;4912177;29;20036;-78
2024/02/12 07:56:55;;;;;;;41.35;13.13;;;;;;;5.83;100.00;99845.19;4928043;29;20030;-77
2024/02/12 07:59:20;;;;;;;;;;;;;;;5.86;100.00;99849.19;4919014;29;20040;-76
2024/02/12 08:01:46;;;;;;;35.60;12.63;;;;;;;5.87;100.00;99850.75;4921023;29;20399;-77
2024/02/12 08:04:12;;;;;;;37.45;11.98;;;;;;;5.89;100.00;99846.81;4909574;29;20036;-76
2024/02/12 08:06:38;;;;;;;32.28;12.48;;;;;;;5.91;100.00;99849.22;4922891;29;20046;-77
2024/02/12 08:09:04;;;;;;;32.28;11.55;;;;;;;5.93;100.00;99850.56;4924428;29;20067;-77
2024/02/12 08:11:30;;;;;;;35.65;12.82;;;;;;;5.94;100.00;99851.34;4922721;29;20130;-76
2024/02/12 08:13:56;;;;;;;33.90;11.65;;;;;;;5.97;100.00;99854.31;4916500;29;20067;-76
2024/02/12 08:16:22;;;;;;;32.65;11.98;;;;;;;6.00;100.00;99860.94;4926701;29;20139;-77
2024/02/12 08:18:50;;;;;;;34.13;12.18;;;;;;;6.02;100.00;99862.28;4928064;29;20058;-77
2024/02/12 08:21:15;;;;;;;33.17;12.38;;;;;;;6.06;100.00;99865.22;4912606;29;20040;-77
2024/02/12 08:23:41;;;;;;;28.80;11.90;;;;;;;6.12;100.00;99874.03;4906860;29;20130;-76
2024/02/12 08:26:07;;;;;;;35.38;11.55;;;;;;;6.13;100.00;99868.44;4920795;29;20052;-78
2024/02/12 08:28:33;;;;;;;36.28;13.57;;;;;;;6.17;100.00;99874.03;4913456;29;20039;-78
2024/02/12 08:30:59;;;;;;;33.08;12.55;;;;;;;6.19;100.00;99888.66;4925028;29;20043;-75
2024/02/12 08:33:26;;;;;;;32.17;12.00;;;;;;;6.21;100.00;99883.88;4919270;29;20066;-77
2024/02/12 08:35:53;;;;;;;30.27;11.68;;;;;;;6.25;100.00;99884.97;4906034;29;20095;-77
2024/02/12 08:38:19;;;;;;;;;;;;;;;6.27;100.00;99892.66;4920108;28;20050;-76
2024/02/12 08:40:45;;;;;;;34.25;12.93;;;;;;;6.29;100.00;99891.34;4921257;29;19922;-77
2024/02/12 08:43:10;;;;;;;27.15;11.40;;;;;;;6.33;100.00;99896.94;4915585;29;20457;-75
2024/02/12 08:45:36;;;;;;;30.70;12.20;;;;;;;6.35;100.00;99902.78;4901908;29;20454;-76
2024/02/12 08:48:06;;;;;;;30.65;11.95;;;;;;;6.38;100.00;99909.47;4934834;28;20389;-76
2024/02/12 08:50:34;;;;;;;30.15;11.30;;;;;;;6.39;100.00;99909.19;4900490;29;20040;-78
2024/02/12 08:53:00;;;;;;;36.67;12.20;;;;;;;6.39;100.00;99909.19;4916223;29;20036;-78
2024/02/12 08:55:26;;;;;;;35.00;13.00;;;;;;;6.43;100.00;99914.78;4917640;29;20153;-76
2024/02/12 08:57:54;;;;;;;33.03;11.68;;;;;;;6.45;100.00;99915.34;4915325;29;20055;-78
2024/02/12 09:00:21;;;;;;;32.28;12.93;;;;;;;6.44;100.00;99925.19;4917168;29;20095;-76
2024/02/12 09:03:01;;;;;;;26.25;10.32;;;;;;;6.43;100.00;99920.09;4909669;28;20044;-75
2024/02/12 09:05:27;;;;;;;28.73;11.80;;;;;;;6.44;100.00;99922.53;4914013;29;20035;-76
2024/02/12 09:07:53;;;;;;;35.20;12.88;;;;;;;6.44;100.00;99924.38;4933144;23;20043;-73
2024/02/12 09:10:19;;;;;;;29.65;10.82;;;;;;;6.45;100.00;99926.78;4908856;29;20051;-73
2024/02/12 09:12:46;;;;;;;30.60;11.90;;;;;;;6.47;100.00;99940.59;4931534;28;20032;-71
2024/02/12 09:15:14;;;;;;;28.23;11.32;;;;;;;6.49;100.00;99943.00;4922749;28;20090;-74
2024/02/12 09:17:40;;;;;;;27.30;12.32;;;;;;;6.51;100.00;99938.22;4922849;29;20046;-71
2024/02/12 09:20:06;;;;;;;28.02;11.05;;;;;;;6.49;100.00;99948.31;4922900;29;20105;-73
2024/02/12 09:22:35;;;;;;;29.27;10.88;;;;;;;6.50;100.00;99950.75;4919994;29;20044;-74
2024/02/12 09:25:03;;;;;;;29.25;11.35;;;;;;;6.53;100.00;99955.53;4926186;29;20652;-73
2024/02/12 09:27:31;;;;;;;23.20;9.88;;;;;;;6.57;100.00;99955.81;4902385;29;20572;-76
2024/02/12 09:29:57;;;;;;;30.70;11.20;;;;;;;6.59;100.00;99953.69;4920874;29;20039;-71
2024/02/12 09:32:24;;;;;;;25.67;11.18;;;;;;;6.60;100.00;99957.94;4922285;29;20044;-74
2024/02/12 09:34:50;;;;;;;23.38;10.57;;;;;;;6.63;100.00;99970.69;4923132;29;20050;-74
2024/02/12 09:37:18;;;;;;;26.73;10.85;;;;;;;6.64;100.00;99971.50;4926561;29;20123;-73
2024/02/12 09:39:45;;;;;;;24.92;10.77;;;;;;;6.66;100.00;99970.19;4925178;29;20043;-72
2024/02/12 09:42:13;;;;;;;22.38;10.23;;;;;;;6.70;100.00;99976.56;4926739;29;20063;-74
2024/02/12 09:44:46;;;;;;;22.58;10.15;;;;;;;6.70;100.00;99979.22;4922001;29;20046;-73
2024/02/12 09:47:14;;;;;;;20.73;10.35;;;;;;;6.73;100.00;99989.38;4924738;29;20759;-73
2024/02/12 09:49:41;;;;;;;20.88;10.05;;;;;;;6.77;100.00;99985.13;4923963;29;20043;-72
2024/02/12 09:52:08;;;;;;;20.75;10.45;;;;;;;6.81;100.00;99991.50;4924657;29;20509;-73
2024/02/12 09:54:36;;;;;;;23.85;10.65;;;;;;;6.83;100.00;99994.69;4922008;29;20113;-73
2024/02/12 09:57:04;;;;;;;20.05;10.05;;;;;;;6.83;100.00;99992.03;4933406;28;20039;-72
2024/02/12 09:59:31;;;;;;;22.77;9.43;;;;;;;6.88;100.00;99998.44;4919678;29;20675;-74
2024/02/12 10:01:58;;;;;;;23.13;10.65;;;;;;;6.94;100.00;100005.38;4926227;29;20047;-73
2024/02/12 10:04:44;;;;;;;25.35;9.80;;;;;;;6.96;100.00;99989.94;4922968;29;20027;-73
2024/02/12 10:07:39;;;;;;;25.70;10.00;;;;;;;7.00;100.00;100007.00;4928508;28;20043;-73
2024/02/12 10:10:18;;;;;;;24.17;10.10;;;;;;;6.97;100.00;100010.16;4908805;29;20031;-73
2024/02/12 10:13:07;;;;;;;24.23;10.10;;;;;;;7.01;100.00;100008.59;4910170;29;20126;-73
2024/02/12 10:15:56;;;;;;;20.40;9.05;;;;;;;7.00;100.00;100014.97;4923068;29;20042;-72
2024/02/12 10:18:46;;;;;;;19.27;9.23;;;;;;;7.01;100.00;100013.91;4929276;28;20423;-72
2024/02/12 10:21:31;;;;;;;16.70;9.27;;;;;;;7.04;100.00;100018.69;4920094;29;20569;-73
2024/02/12 10:24:21;;;;;;;21.77;9.52;;;;;;;7.07;100.00;100012.88;4922262;29;20051;-73
2024/02/12 10:27:07;;;;;;;20.20;9.65;;;;;;;7.10;100.00;100018.44;4916312;29;20075;-72
2024/02/12 10:30:00;;;;;;;18.67;9.20;;;;;;;7.14;100.00;100023.25;4897131;29;20091;-73
2024/02/12 10:32:49;;;;;;;20.65;9.35;;;;;;;7.19;100.00;100024.06;4920924;29;20155;-72
2024/02/12 10:35:41;;;;;;;20.70;9.23;;;;;;;7.23;100.00;100033.13;4910438;29;20071;-75
2024/02/12 10:38:28;;;;;;;21.15;10.05;;;;;;;7.25;100.00;100025.69;4925331;29;20063;-74
2024/02/12 10:41:29;;;;;;;20.05;9.40;;;;;;;7.23;100.00;100038.44;4927813;29;20058;-72
2024/02/12 10:44:17;;;;;;;20.02;9.52;;;;;;;7.27;100.00;100036.88;4924878;28;20035;-76
2024/02/12 10:47:04;;;;;;;19.55;9.98;;;;;;;7.29;100.00;100042.72;4924984;29;20409;-73
2024/02/12 10:49:50;;;;;;;22.55;10.98;;;;;;;7.32;100.00;100047.53;4935587;28;20464;-72
2024/02/12 10:52:46;;;;;;;23.52;10.77;;;;;;;7.31;100.00;100040.56;4914567;29;20118;-72
2024/02/12 10:55:33;;;;;;;;;;;;;;;7.31;100.00;100048.56;4912522;29;20381;-73
2024/02/12 10:58:00;;;;;;;19.70;9.35;;;;;;;7.26;100.00;100040.59;4928701;29;19914;-72
2024/02/12 11:00:26;;;;;;;20.08;9.65;;;;;;;7.27;100.00;100036.88;4921138;29;20494;-72
2024/02/12 11:03:02;;;;;;;23.40;10.45;;;;;;;7.32;100.00;100042.22;4912804;29;20051;-74
2024/02/12 11:05:28;;;;;;;22.50;10.98;;;;;;;7.32;100.00;100047.53;4927028;29;20035;-73
2024/02/12 11:08:06;;;;;;;20.02;11.38;;;;;;;7.29;100.00;100048.03;4927979;29;20815;-73
2024/02/12 11:10:35;;;;;;;23.50;12.35;;;;;;;7.30;100.00;100048.84;4927221;29;20051;-73
2024/02/12 11:13:05;;;;;;;22.17;11.88;;;;;;;7.28;100.00;100051.78;4930486;29;20071;-75
2024/02/12 11:15:31;;;;;;;25.17;13.35;;;;;;;7.28;100.00;100056.31;4926547;29;20040;-73
2024/02/12 11:17:57;;;;;;;23.33;11.02;;;;;;;7.31;100.00;100051.22;4928561;29;20035;-73
2024/02/12 11:20:25;;;;;;;25.77;12.57;;;;;;;7.30;100.00;100051.50;4926057;29;20587;-78
2024/02/12 11:22:55;;;;;;;23.98;11.80;;;;;;;7.34;100.00;100064.03;4930766;29;20184;-72
2024/02/12 11:25:21;;;;;;;23.42;12.65;;;;;;;7.36;100.00;100064.56;4927634;29;20032;-73
2024/02/12 11:27:58;;;;;;;24.50;12.57;;;;;;;7.36;100.00;100066.44;4923539;29;20051;-72
2024/02/12 11:30:24;;;;;;;27.27;13.77;;;;;;;7.37;100.00;100066.16;4927866;29;20050;-72
2024/02/12 11:32:50;;;;;;;23.58;12.82;;;;;;;7.36;100.00;100069.09;4939320;28;20035;-72
2024/02/12 11:35:18;;;;;;;24.15;12.35;;;;;;;7.31;100.00;100071.75;4923337;29;20035;-74
2024/02/12 11:37:46;;;;;;;26.98;14.13;;;;;;;7.31;100.00;100077.88;4941715;28;20074;-73
2024/02/12 11:40:18;;;;;;;26.80;13.30;;;;;;;7.31;100.00;100079.72;4924442;29;20043;-74
2024/02/12 11:42:54;;;;;;;24.35;12.65;;;;;;;7.30;100.00;100086.94;4928060;29;20024;-73